Time;durP1;ratioP1;P1;durP2;ratioP2;P2;SDS_P1;SDS_P2;PMS_P1;PMS_P2;Temp;Humidity;BMP_temperature;BMP_pressure;BME280_temperature;BME280_humidity;BME280_pressure;Samples;Min_cycle;Max_cycle;Signal;HPM_P1;HPM_P2
2022/02/13 00:02:05;;;;;;;18.63;13.80;;;;;;;5.47;62.70;96215.63;4894908;29;20043;-76
2022/02/13 00:04:30;;;;;;;18.67;13.50;;;;;;;5.55;62.27;96200.16;4895023;29;20055;-76
2022/02/13 00:06:56;;;;;;;20.25;12.23;;;;;;;5.66;61.94;96215.25;4879338;29;20036;-76
2022/02/13 00:09:21;;;;;;;17.70;12.82;;;;;;;5.58;62.19;96210.13;4895946;29;20043;-76
2022/02/13 00:11:47;;;;;;;18.50;12.18;;;;;;;5.59;61.85;96222.06;4879094;29;20056;-76
2022/02/13 00:14:12;;;;;;;26.50;12.13;;;;;;;5.52;61.96;96221.09;4894794;29;20441;-76
2022/02/13 00:16:38;;;;;;;20.70;12.27;;;;;;;5.72;61.04;96214.59;4894785;29;20061;-76
2022/02/13 00:19:03;;;;;;;16.25;12.38;;;;;;;5.70;60.49;96235.44;4894957;29;20032;-76
2022/02/13 00:21:29;;;;;;;15.98;11.68;;;;;;;5.54;60.37;96214.03;4895284;29;20040;-76
2022/02/13 00:23:54;;;;;;;18.85;11.75;;;;;;;5.48;60.01;96214.66;4879272;29;20048;-77
2022/02/13 00:26:20;;;;;;;17.15;11.45;;;;;;;5.33;60.42;96211.97;4894906;29;20033;-76
2022/02/13 00:28:45;;;;;;;16.27;11.30;;;;;;;5.36;59.91;96216.78;4878783;29;20036;-77
2022/02/13 00:31:11;;;;;;;15.65;11.40;;;;;;;5.15;59.92;96222.47;4894705;29;20041;-76
2022/02/13 00:33:36;;;;;;;23.95;11.02;;;;;;;5.18;59.47;96214.41;4894402;29;20048;-76
2022/02/13 00:36:02;;;;;;;12.85;10.23;;;;;;;5.28;58.87;96220.19;4879338;29;20092;-76
2022/02/13 00:38:27;;;;;;;15.60;9.63;;;;;;;5.24;58.38;96216.34;4879035;29;20076;-76
2022/02/13 00:40:58;;;;;;;10.95;9.00;;;;;;;5.02;58.80;96217.81;4879174;29;20048;-76
2022/02/13 00:43:24;;;;;;;12.10;9.13;;;;;;;4.89;58.56;96224.44;4893641;29;20045;-76
2022/02/13 00:45:49;;;;;;;14.18;8.88;;;;;;;4.72;59.19;96208.97;4895400;29;20557;-76
2022/02/13 00:48:15;;;;;;;13.73;8.55;;;;;;;4.74;58.79;96212.19;4895774;29;20458;-76
2022/02/13 00:50:42;;;;;;;15.13;9.55;;;;;;;4.79;58.19;96230.56;4878719;29;20712;-76
2022/02/13 00:53:08;;;;;;;10.63;8.18;;;;;;;4.72;58.72;96218.47;4878869;29;20040;-76
2022/02/13 00:55:33;;;;;;;11.23;8.65;;;;;;;4.75;58.88;96216.38;4895431;29;20040;-76
2022/02/13 00:57:59;;;;;;;11.30;9.35;;;;;;;4.78;58.51;96218.63;4894161;29;20044;-76
2022/02/13 01:00:25;;;;;;;9.43;8.25;;;;;;;4.69;58.05;96217.00;4878524;29;20044;-76
2022/02/13 01:02:51;;;;;;;10.13;9.05;;;;;;;4.58;58.34;96219.91;4878646;29;20112;-76
2022/02/13 01:05:17;;;;;;;12.90;8.52;;;;;;;4.65;57.85;96223.44;4877930;29;20563;-76
2022/02/13 01:07:56;;;;;;;10.40;8.07;;;;;;;4.57;57.96;96220.06;4878725;29;20039;-76
2022/02/13 01:10:21;;;;;;;10.90;7.57;;;;;;;4.46;57.52;96246.94;4880407;29;20501;-76
2022/02/13 01:12:46;;;;;;;11.60;8.35;;;;;;;4.42;57.55;96233.59;4894098;29;20055;-76
2022/02/13 01:15:12;;;;;;;9.75;8.07;;;;;;;4.16;57.81;96212.28;4894941;29;20043;-76
2022/02/13 01:17:37;;;;;;;13.02;7.78;;;;;;;4.18;58.17;96211.16;4895508;29;20059;-76
2022/02/13 01:20:03;;;;;;;10.65;7.82;;;;;;;4.30;57.66;96228.88;4895371;29;20044;-76
2022/02/13 01:22:29;;;;;;;17.15;8.52;;;;;;;4.23;57.65;96246.75;4894803;29;20043;-76
2022/02/13 01:24:54;;;;;;;9.52;6.97;;;;;;;4.13;58.05;96217.75;4895275;29;20036;-76
2022/02/13 01:27:20;;;;;;;14.25;7.20;;;;;;;4.11;57.37;96256.50;4878349;29;20476;-76
2022/02/13 01:29:45;;;;;;;12.32;7.30;;;;;;;4.03;57.77;96217.88;4878030;29;20044;-76
2022/02/13 01:32:11;;;;;;;10.35;7.07;;;;;;;4.04;58.05;96213.53;4894520;29;20036;-76
2022/02/13 01:34:36;;;;;;;15.35;7.68;;;;;;;3.93;58.29;96199.19;4878246;29;20493;-76
2022/02/13 01:37:02;;;;;;;14.00;8.15;;;;;;;3.86;58.51;96205.91;4893271;29;20405;-76
2022/02/13 01:39:27;;;;;;;19.50;8.60;;;;;;;3.69;59.05;96199.09;4894617;29;20048;-76
2022/02/13 01:41:52;;;;;;;8.32;7.30;;;;;;;3.71;59.40;96215.97;4893525;29;20032;-76
2022/02/13 01:44:25;;;;;;;14.32;8.63;;;;;;;3.67;59.51;96213.88;4893255;29;20413;-75
2022/02/13 01:46:50;;;;;;;17.95;8.68;;;;;;;3.66;58.87;96186.53;4894724;29;20136;-76
2022/02/13 01:49:16;;;;;;;16.45;8.23;;;;;;;3.72;58.69;96170.47;4893410;29;20111;-76
2022/02/13 01:51:42;;;;;;;9.48;8.15;;;;;;;3.77;58.68;96181.13;4893562;29;20490;-76
2022/02/13 01:54:09;;;;;;;13.73;8.48;;;;;;;3.83;58.87;96206.22;4893495;29;20040;-77
2022/02/13 01:56:34;;;;;;;10.98;8.60;;;;;;;3.79;58.86;96197.22;4894582;29;20119;-77
2022/02/13 01:59:00;;;;;;;10.30;8.45;;;;;;;3.59;59.04;96199.22;4877649;29;20123;-76
2022/02/13 02:01:25;;;;;;;13.02;8.75;;;;;;;3.53;59.39;96185.19;4877873;29;20575;-76
2022/02/13 02:03:51;;;;;;;10.73;8.07;;;;;;;3.47;59.89;96185.81;4893030;29;20056;-77
2022/02/13 02:06:16;;;;;;;11.40;8.50;;;;;;;3.60;60.02;96188.78;4892413;29;20036;-76
2022/02/13 02:08:41;;;;;;;9.98;7.88;;;;;;;3.70;59.29;96172.41;4893120;29;20039;-76
2022/02/13 02:11:07;;;;;;;14.65;8.18;;;;;;;3.84;58.30;96182.09;4892401;29;20041;-76
2022/02/13 02:13:32;;;;;;;17.48;8.20;;;;;;;3.72;57.86;96183.34;4877281;29;20040;-76
2022/02/13 02:15:58;;;;;;;10.25;7.28;;;;;;;3.73;57.90;96180.59;4893821;29;20043;-76
2022/02/13 02:18:23;;;;;;;8.40;6.93;;;;;;;3.79;57.09;96179.19;4876823;29;20457;-76
2022/02/13 02:20:49;;;;;;;11.50;6.85;;;;;;;3.69;55.98;96183.66;4877599;29;20041;-76
2022/02/13 02:23:15;;;;;;;7.53;5.78;;;;;;;3.63;54.93;96199.72;4877295;29;20025;-76
2022/02/13 02:25:40;;;;;;;8.20;5.38;;;;;;;3.52;54.83;96177.63;4892991;29;20037;-76
2022/02/13 02:28:06;;;;;;;15.32;6.43;;;;;;;3.44;53.48;96196.44;4892592;29;20505;-76
2022/02/13 02:30:31;;;;;;;5.90;5.40;;;;;;;3.54;52.05;96189.38;4892819;29;20119;-76
2022/02/13 02:32:56;;;;;;;5.95;5.40;;;;;;;3.61;52.31;96182.69;4892786;29;20051;-76
2022/02/13 02:35:23;;;;;;;7.60;5.45;;;;;;;3.70;51.08;96190.41;4892459;29;20071;-76
2022/02/13 02:37:52;;;;;;;6.40;4.72;;;;;;;3.80;50.33;96211.69;4892073;29;20055;-76
2022/02/13 02:40:18;;;;;;;8.85;5.10;;;;;;;3.64;49.69;96185.91;4890442;29;20048;-76
2022/02/13 02:42:45;;;;;;;10.57;4.97;;;;;;;3.66;49.77;96186.53;4893815;29;20037;-76
2022/02/13 02:45:13;;;;;;;6.43;4.68;;;;;;;3.75;49.25;96199.28;4893210;29;20168;-76
2022/02/13 02:47:40;;;;;;;6.78;4.68;;;;;;;3.63;48.68;96204.88;4893904;29;20040;-76
2022/02/13 02:50:06;;;;;;;5.13;4.55;;;;;;;3.47;48.95;96216.69;4879142;29;20044;-77
2022/02/13 02:52:31;;;;;;;7.60;4.20;;;;;;;3.51;48.38;96228.28;4895134;29;20813;-77
2022/02/13 02:54:57;;;;;;;5.07;4.40;;;;;;;3.57;47.43;96191.63;4880340;29;20044;-77
2022/02/13 02:57:22;;;;;;;10.15;4.00;;;;;;;3.46;46.69;96215.06;4896211;29;20101;-77
2022/02/13 02:59:48;;;;;;;8.35;4.70;;;;;;;3.30;47.08;96213.22;4880014;29;20036;-77
2022/02/13 03:02:13;;;;;;;4.97;4.57;;;;;;;3.25;46.68;96212.03;4895588;29;20044;-77
2022/02/13 03:04:38;;;;;;;4.32;3.92;;;;;;;3.33;46.67;96201.81;4880235;29;20041;-77
2022/02/13 03:07:04;;;;;;;17.77;4.10;;;;;;;3.35;46.05;96217.09;4895998;29;20036;-76
2022/02/13 03:09:29;;;;;;;5.65;4.20;;;;;;;3.34;46.20;96208.56;4880162;29;20141;-77
2022/02/13 03:11:55;;;;;;;4.93;3.78;;;;;;;3.38;46.12;96222.72;4895475;29;20037;-77
2022/02/13 03:14:20;;;;;;;7.47;3.95;;;;;;;3.39;46.06;96228.69;4894875;29;20398;-77
2022/02/13 03:16:46;;;;;;;3.65;3.35;;;;;;;3.37;46.09;96200.56;4897043;29;20041;-76
2022/02/13 03:19:11;;;;;;;4.88;3.72;;;;;;;3.40;46.13;96215.66;4896832;29;20059;-76
2022/02/13 03:21:36;;;;;;;3.83;3.53;;;;;;;3.41;46.30;96212.13;4896802;29;20091;-76
2022/02/13 03:24:07;;;;;;;5.80;3.53;;;;;;;3.36;46.68;96208.41;4896761;29;20513;-76
2022/02/13 03:26:32;;;;;;;6.10;4.13;;;;;;;3.49;45.68;96199.34;4894976;29;20537;-76
2022/02/13 03:28:58;;;;;;;10.95;4.13;;;;;;;3.64;46.36;96201.34;4895166;29;20048;-76
2022/02/13 03:31:23;;;;;;;7.03;4.28;;;;;;;3.60;46.11;96206.78;4896931;29;20513;-76
2022/02/13 03:33:49;;;;;;;3.90;3.50;;;;;;;3.59;46.13;96200.03;4896572;29;20036;-76
2022/02/13 03:36:14;;;;;;;6.60;3.67;;;;;;;3.60;45.63;96217.06;4896852;29;20044;-76
2022/02/13 03:38:40;;;;;;;3.88;3.42;;;;;;;3.69;45.91;96202.47;4895418;29;20029;-76
2022/02/13 03:41:05;;;;;;;5.38;3.80;;;;;;;3.58;45.58;96219.00;4895417;29;20040;-76
2022/02/13 03:43:30;;;;;;;3.80;3.50;;;;;;;3.52;46.19;96209.31;4896111;29;20032;-76
2022/02/13 03:45:56;;;;;;;7.00;3.42;;;;;;;3.46;45.84;96220.22;4896576;29;20044;-76
2022/02/13 03:48:21;;;;;;;6.00;4.20;;;;;;;3.34;46.12;96226.56;4879224;29;20036;-76
2022/02/13 03:50:47;;;;;;;4.53;3.63;;;;;;;3.17;46.78;96217.97;4879561;29;20044;-76
2022/02/13 03:53:12;;;;;;;6.47;4.20;;;;;;;3.30;47.01;96218.38;4896218;29;20068;-76
2022/02/13 03:55:38;;;;;;;4.95;4.13;;;;;;;3.31;47.03;96211.47;4879645;29;20104;-76
2022/02/13 03:58:03;;;;;;;3.97;3.55;;;;;;;3.29;47.02;96214.19;4879479;29;20032;-76
2022/02/13 04:00:28;;;;;;;5.47;3.30;;;;;;;3.23;47.12;96204.50;4879091;29;20429;-76
2022/02/13 04:02:55;;;;;;;3.65;3.35;;;;;;;3.26;47.19;96214.50;4895082;29;20481;-76
2022/02/13 04:05:22;;;;;;;8.02;3.78;;;;;;;3.33;47.38;96204.41;4894798;29;20059;-76
2022/02/13 04:07:47;;;;;;;7.35;4.22;;;;;;;3.21;47.11;96236.44;4895042;29;20048;-76
2022/02/13 04:10:13;;;;;;;5.80;3.70;;;;;;;3.20;47.42;96211.69;4896153;29;20036;-76
2022/02/13 04:12:39;;;;;;;5.22;4.20;;;;;;;3.18;47.51;96200.78;4894338;29;20045;-76
2022/02/13 04:15:05;;;;;;;9.05;4.07;;;;;;;3.09;48.01;96232.50;4879273;29;20040;-76
2022/02/13 04:17:38;;;;;;;6.03;4.28;;;;;;;3.06;47.88;96209.69;4894704;29;20433;-77
2022/02/13 04:20:04;;;;;;;7.90;4.93;;;;;;;3.19;47.92;96207.53;4895428;29;20089;-76
2022/02/13 04:22:30;;;;;;;9.25;4.30;;;;;;;3.28;47.76;96247.75;4895174;29;20076;-76
2022/02/13 04:24:55;;;;;;;5.10;3.70;;;;;;;3.20;48.36;96229.69;4895713;29;20076;-76
2022/02/13 04:27:21;;;;;;;6.72;4.32;;;;;;;3.05;48.70;96223.50;4895830;29;20053;-76
2022/02/13 04:29:46;;;;;;;6.22;4.30;;;;;;;3.01;48.93;96264.91;4895874;29;20053;-76
2022/02/13 04:32:12;;;;;;;7.45;4.78;;;;;;;2.92;49.54;96213.59;4895912;29;20052;-75
2022/02/13 04:34:37;;;;;;;7.38;4.97;;;;;;;2.99;49.26;96215.44;4893437;29;20037;-75
2022/02/13 04:37:03;;;;;;;6.07;4.50;;;;;;;3.04;49.64;96222.69;4878967;29;20040;-75
2022/02/13 04:39:28;;;;;;;8.45;4.82;;;;;;;3.20;49.44;96209.13;4878925;29;20051;-76
2022/02/13 04:41:54;;;;;;;8.48;4.65;;;;;;;3.38;49.30;96206.50;4895179;29;20032;-75
2022/02/13 04:44:19;;;;;;;5.45;4.72;;;;;;;3.53;49.35;96212.69;4878394;29;20037;-75
2022/02/13 04:46:44;;;;;;;6.47;4.60;;;;;;;3.49;49.80;96219.91;4894417;29;20386;-76
2022/02/13 04:49:10;;;;;;;8.15;4.55;;;;;;;3.49;49.75;96208.81;4895476;29;20564;-76
2022/02/13 04:51:35;;;;;;;8.90;4.63;;;;;;;3.28;51.05;96211.75;4894089;29;20029;-76
2022/02/13 04:54:01;;;;;;;7.25;4.40;;;;;;;3.38;50.66;96207.31;4878144;29;20044;-76
2022/02/13 04:56:26;;;;;;;7.97;5.40;;;;;;;3.37;51.61;96210.84;4878571;29;20041;-76
2022/02/13 04:58:52;;;;;;;10.23;5.75;;;;;;;3.37;51.64;96202.31;4894047;29;20509;-76
2022/02/13 05:01:17;;;;;;;7.40;5.05;;;;;;;3.37;51.48;96208.25;4894075;29;20108;-76
2022/02/13 05:03:42;;;;;;;6.07;4.80;;;;;;;3.24;51.93;96210.44;4895271;29;20048;-77
2022/02/13 05:06:08;;;;;;;10.68;5.40;;;;;;;3.26;52.27;96208.53;4895450;29;20104;-76
2022/02/13 05:08:34;;;;;;;7.47;5.22;;;;;;;3.25;51.66;96205.16;4895300;29;20032;-76
2022/02/13 05:10:59;;;;;;;13.95;5.20;;;;;;;3.33;52.41;96209.53;4878428;29;20370;-76
2022/02/13 05:13:24;;;;;;;6.47;5.65;;;;;;;3.39;52.33;96214.06;4892575;29;20069;-76
2022/02/13 05:15:50;;;;;;;9.27;5.57;;;;;;;3.38;52.70;96211.63;4870090;29;20033;-75
2022/02/13 05:18:16;;;;;;;15.43;5.93;;;;;;;3.28;53.76;96222.06;4893950;29;20036;-76
2022/02/13 05:20:41;;;;;;;6.50;5.45;;;;;;;3.22;53.99;96227.78;4893024;29;20033;-75
2022/02/13 05:23:06;;;;;;;11.40;5.75;;;;;;;3.15;53.94;96213.94;4893714;29;20037;-76
2022/02/13 05:25:32;;;;;;;9.98;5.32;;;;;;;3.16;53.62;96218.13;4894496;29;20040;-76
2022/02/13 05:27:57;;;;;;;8.85;6.03;;;;;;;3.21;53.80;96226.16;4893645;29;20048;-76
2022/02/13 05:30:23;;;;;;;12.60;6.10;;;;;;;3.16;55.36;96228.41;4894749;29;20444;-77
2022/02/13 05:32:48;;;;;;;10.38;6.22;;;;;;;3.00;56.59;96222.19;4893410;29;20044;-76
2022/02/13 05:35:13;;;;;;;13.15;6.72;;;;;;;3.00;56.17;96218.81;4878143;29;20075;-76
2022/02/13 05:37:39;;;;;;;15.38;6.43;;;;;;;2.87;57.38;96218.38;4893669;29;20421;-76
2022/02/13 05:40:29;;;;;;;9.38;6.60;;;;;;;3.00;57.07;96231.66;4894730;29;20394;-76
2022/02/13 05:42:54;;;;;;;9.23;5.63;;;;;;;3.01;56.41;96236.63;4926903;29;20083;-77
2022/02/13 05:45:20;;;;;;;16.77;8.10;;;;;;;3.05;56.87;96220.91;4933090;29;20039;-76
2022/02/13 05:47:46;;;;;;;10.75;6.13;;;;;;;3.14;56.44;96238.03;4932510;29;20035;-77
2022/02/13 05:50:12;;;;;;;12.25;6.28;;;;;;;3.04;55.07;96234.72;4930626;29;20114;-76
2022/02/13 05:52:38;;;;;;;10.88;5.70;;;;;;;3.12;54.94;96225.31;4923126;29;20050;-76
2022/02/13 05:55:04;;;;;;;18.52;5.93;;;;;;;3.10;56.24;96223.88;4932231;29;20035;-76
2022/02/13 05:57:30;;;;;;;10.63;7.10;;;;;;;3.07;56.65;96229.28;4938619;29;20039;-77
2022/02/13 05:59:55;;;;;;;13.50;7.32;;;;;;;3.14;56.31;96253.44;4922875;29;20468;-76
2022/02/13 06:02:21;;;;;;;13.90;6.63;;;;;;;3.10;56.66;96229.81;4930824;29;20405;-76
2022/02/13 06:04:46;;;;;;;11.68;6.25;;;;;;;3.07;56.54;96229.28;4931678;29;20411;-76
2022/02/13 06:07:12;;;;;;;13.10;5.82;;;;;;;2.98;56.65;96231.81;4939583;29;20100;-75
2022/02/13 06:09:37;;;;;;;8.88;5.78;;;;;;;2.82;56.97;96241.97;4930656;29;20051;-75
2022/02/13 06:12:03;;;;;;;8.32;5.85;;;;;;;2.87;57.16;96228.66;4906748;29;20039;-75
2022/02/13 06:14:28;;;;;;;8.00;6.03;;;;;;;2.95;56.79;96237.25;4930355;29;20051;-76
2022/02/13 06:16:55;;;;;;;13.25;7.30;;;;;;;2.91;57.42;96246.19;4907041;29;20048;-76
2022/02/13 06:19:21;;;;;;;14.73;7.03;;;;;;;2.90;57.69;96244.59;4932209;29;20103;-76
2022/02/13 06:21:46;;;;;;;17.30;7.15;;;;;;;2.91;58.06;96251.31;4932367;29;20024;-76
2022/02/13 06:24:11;;;;;;;12.55;6.10;;;;;;;2.94;58.11;96250.25;4937756;29;20036;-76
2022/02/13 06:26:37;;;;;;;9.80;6.13;;;;;;;2.95;58.69;96249.28;4930551;29;20043;-76
2022/02/13 06:29:03;;;;;;;7.65;6.38;;;;;;;2.91;59.23;96256.47;4922885;29;20031;-76
2022/02/13 06:31:29;;;;;;;8.50;7.20;;;;;;;2.85;59.32;96259.63;4930696;29;20526;-76
2022/02/13 06:33:54;;;;;;;14.07;6.95;;;;;;;2.87;59.79;96264.63;4929694;29;20036;-76
2022/02/13 06:36:19;;;;;;;10.80;6.53;;;;;;;2.95;59.75;96247.53;4930383;29;20043;-76
2022/02/13 06:38:45;;;;;;;7.20;6.43;;;;;;;2.96;59.56;96253.47;4907712;29;20034;-77
2022/02/13 06:41:10;;;;;;;14.77;7.18;;;;;;;2.90;60.50;96260.00;4914380;29;20032;-77
2022/02/13 06:43:36;;;;;;;9.93;6.90;;;;;;;2.83;60.60;96259.00;4930558;29;20471;-76
2022/02/13 06:46:01;;;;;;;7.55;6.70;;;;;;;2.92;60.60;96258.06;4930553;29;20143;-76
2022/02/13 06:48:31;;;;;;;13.38;7.60;;;;;;;3.05;60.34;96256.91;4921763;29;20036;-77
2022/02/13 06:50:57;;;;;;;13.65;8.52;;;;;;;3.03;60.50;96251.09;4923753;29;20047;-77
2022/02/13 06:53:37;;;;;;;15.45;8.25;;;;;;;3.03;61.04;96253.66;4930091;29;20036;-76
2022/02/13 06:56:03;;;;;;;10.60;7.65;;;;;;;3.00;61.15;96270.19;4916889;29;20052;-76
2022/02/13 06:58:28;;;;;;;14.00;8.38;;;;;;;3.14;60.80;96274.00;4910108;29;20051;-77
2022/02/13 07:00:54;;;;;;;13.77;8.18;;;;;;;3.24;60.35;96262.66;4898568;29;20051;-77
2022/02/13 07:03:19;;;;;;;14.27;7.93;;;;;;;3.36;59.53;96276.06;4913860;29;20044;-75
2022/02/13 07:05:45;;;;;;;11.70;7.72;;;;;;;3.29;59.96;96269.94;4931657;29;20091;-76
2022/02/13 07:08:10;;;;;;;15.23;8.60;;;;;;;3.29;60.42;96262.22;4899097;29;20099;-77
2022/02/13 07:10:36;;;;;;;12.13;9.07;;;;;;;3.09;61.08;96253.06;4914380;29;20536;-77
2022/02/13 07:13:02;;;;;;;13.40;8.57;;;;;;;3.18;60.87;96252.19;4899533;29;20046;-77
2022/02/13 07:15:27;;;;;;;12.60;8.43;;;;;;;2.93;61.39;96254.59;4915618;29;20032;-76
2022/02/13 07:17:54;;;;;;;12.60;8.38;;;;;;;2.81;62.66;96262.66;4898831;29;20485;-76
2022/02/13 07:20:19;;;;;;;13.82;8.73;;;;;;;2.99;61.88;96271.97;4914734;29;20111;-76
2022/02/13 07:22:45;;;;;;;11.68;8.55;;;;;;;2.87;62.64;96273.13;4913904;29;20032;-76
2022/02/13 07:25:10;;;;;;;24.13;9.05;;;;;;;2.78;62.88;96258.63;4914247;29;20032;-76
2022/02/13 07:27:36;;;;;;;29.30;9.63;;;;;;;2.97;62.80;96255.09;4882680;29;20454;-76
2022/02/13 07:30:06;;;;;;;13.60;8.82;;;;;;;2.98;63.45;96246.41;4914040;29;20044;-76
2022/02/13 07:32:32;;;;;;;19.33;9.38;;;;;;;2.94;63.77;96261.34;4931283;29;20043;-76
2022/02/13 07:34:58;;;;;;;17.48;9.80;;;;;;;2.93;64.04;96259.72;4898779;29;20071;-76
2022/02/13 07:37:24;;;;;;;16.50;9.57;;;;;;;2.94;64.29;96253.63;4917671;29;20042;-76
2022/02/13 07:39:50;;;;;;;17.25;11.38;;;;;;;3.09;64.54;96264.19;4901210;29;20042;-76
2022/02/13 07:42:16;;;;;;;12.57;10.02;;;;;;;3.08;64.27;96254.03;4917571;29;20036;-76
2022/02/13 07:44:42;;;;;;;21.05;10.13;;;;;;;3.35;63.61;96242.81;4934612;29;20123;-77
2022/02/13 07:47:07;;;;;;;15.02;8.75;;;;;;;3.50;62.61;96242.09;4917280;29;20064;-77
2022/02/13 07:49:33;;;;;;;13.23;9.38;;;;;;;3.54;63.77;96253.69;4933250;29;20036;-76
2022/02/13 07:51:58;;;;;;;13.00;9.85;;;;;;;3.35;62.90;96253.91;4898264;29;20154;-76
2022/02/13 07:54:25;;;;;;;12.02;7.65;;;;;;;3.29;63.19;96239.09;4934714;29;20043;-76
2022/02/13 07:56:50;;;;;;;11.50;8.45;;;;;;;3.34;62.97;96252.28;4916721;29;20053;-76
2022/02/13 07:59:15;;;;;;;12.07;8.23;;;;;;;3.20;63.80;96255.41;4934101;29;20028;-77
2022/02/13 08:01:41;;;;;;;20.02;8.70;;;;;;;3.14;64.14;96267.09;4900886;29;20120;-76
2022/02/13 08:04:06;;;;;;;13.15;8.70;;;;;;;3.09;64.98;96255.63;4901052;29;20032;-76
2022/02/13 08:06:32;;;;;;;15.73;7.97;;;;;;;3.21;63.82;96241.59;4934220;29;20036;-76
2022/02/13 08:08:57;;;;;;;12.98;8.93;;;;;;;3.18;64.89;96258.13;4931961;29;20027;-76
2022/02/13 08:11:22;;;;;;;16.23;8.68;;;;;;;3.03;64.41;96263.94;4933756;29;20040;-76
2022/02/13 08:13:49;;;;;;;19.40;8.52;;;;;;;3.14;64.60;96246.53;4916530;29;20043;-76
2022/02/13 08:16:15;;;;;;;14.80;8.70;;;;;;;3.23;64.20;96242.25;4899652;29;20036;-77
2022/02/13 08:18:41;;;;;;;18.95;8.50;;;;;;;3.35;63.93;96238.47;4932563;29;20027;-77
2022/02/13 08:21:07;;;;;;;10.88;8.35;;;;;;;3.29;63.81;96233.94;4900603;29;20040;-76
2022/02/13 08:23:32;;;;;;;12.43;9.38;;;;;;;3.55;62.69;96239.84;4900631;29;20035;-76
2022/02/13 08:25:58;;;;;;;13.98;8.23;;;;;;;3.39;63.15;96252.63;4916099;29;20075;-76
2022/02/13 08:28:23;;;;;;;14.95;9.40;;;;;;;3.52;62.67;96244.50;4915462;29;20044;-76
2022/02/13 08:30:49;;;;;;;13.43;8.25;;;;;;;3.52;62.27;96247.06;4933401;29;20040;-76
2022/02/13 08:33:14;;;;;;;13.13;8.32;;;;;;;3.59;62.21;96246.31;4933600;29;20052;-76
2022/02/13 08:35:39;;;;;;;18.40;8.52;;;;;;;3.60;61.43;96275.44;4933643;29;20059;-76
2022/02/13 08:38:05;;;;;;;13.50;7.68;;;;;;;3.63;60.72;96243.44;4933137;29;20061;-76
2022/02/13 08:40:31;;;;;;;11.43;7.53;;;;;;;3.48;60.76;96264.59;4917240;29;20585;-82
2022/02/13 08:42:59;;;;;;;10.52;7.90;;;;;;;3.52;61.52;96249.66;4932868;29;20035;-79
2022/02/13 08:45:28;;;;;;;13.63;8.15;;;;;;;3.79;60.43;96256.38;4934232;29;20476;-75
2022/02/13 08:47:54;;;;;;;15.45;9.48;;;;;;;3.82;59.84;96241.44;4915367;29;20083;-78
2022/02/13 08:50:19;;;;;;;12.13;8.55;;;;;;;3.83;59.40;96226.81;4933324;29;20039;-74
2022/02/13 08:52:45;;;;;;;15.23;8.98;;;;;;;3.98;59.31;96234.75;4933587;29;20035;-79
2022/02/13 08:55:14;;;;;;;12.23;7.57;;;;;;;4.17;58.76;96243.00;4900076;29;20064;-76
2022/02/13 08:57:43;;;;;;;16.85;8.32;;;;;;;3.92;58.72;96255.00;4933355;29;20040;-77
2022/02/13 09:00:11;;;;;;;13.73;9.20;;;;;;;3.82;58.90;96250.94;4915475;29;20456;-75
2022/02/13 09:02:36;;;;;;;16.77;9.07;;;;;;;3.83;59.22;96237.09;4915556;29;20134;-75
2022/02/13 09:05:04;;;;;;;11.30;8.00;;;;;;;3.87;58.96;96243.53;4932987;29;20452;-75
2022/02/13 09:07:30;;;;;;;13.57;7.90;;;;;;;3.83;58.59;96237.09;4931285;29;20039;-75
2022/02/13 09:09:56;;;;;;;13.35;7.93;;;;;;;3.87;58.83;96248.69;4901719;29;20052;-73
2022/02/13 09:12:22;;;;;;;12.30;7.43;;;;;;;3.86;58.99;96239.34;4930489;29;20094;-76
2022/02/13 09:14:47;;;;;;;14.43;8.13;;;;;;;4.15;57.71;96242.34;4915580;29;20523;-75
2022/02/13 09:17:13;;;;;;;13.70;8.02;;;;;;;4.02;57.68;96242.00;4894419;29;20425;-75
2022/02/13 09:19:38;;;;;;;14.75;8.13;;;;;;;3.96;58.42;96229.75;4924363;29;20043;-74
2022/02/13 09:22:04;;;;;;;10.18;6.70;;;;;;;3.92;58.41;96241.34;4908048;29;20059;-74
2022/02/13 09:24:29;;;;;;;12.15;8.10;;;;;;;3.91;58.75;96242.28;4911934;29;20480;-75
2022/02/13 09:26:55;;;;;;;15.00;9.65;;;;;;;3.83;59.45;96237.09;4932750;29;20039;-75
2022/02/13 09:29:21;;;;;;;13.05;8.68;;;;;;;3.96;58.78;96236.66;4915442;29;20716;-75
2022/02/13 09:31:46;;;;;;;10.15;7.50;;;;;;;4.09;58.87;96226.75;4899737;29;20036;-75
2022/02/13 09:34:18;;;;;;;17.73;8.63;;;;;;;4.32;57.47;96219.22;4917050;29;20044;-76
2022/02/13 09:36:47;;;;;;;10.50;8.85;;;;;;;4.32;57.66;96211.50;4902580;29;20515;-76
2022/02/13 09:39:13;;;;;;;21.83;10.30;;;;;;;4.72;56.70;96221.06;4932620;29;20117;-76
2022/02/13 09:41:39;;;;;;;15.05;8.27;;;;;;;4.99;55.42;96214.75;4899548;29;20475;-75
2022/02/13 09:44:05;;;;;;;11.82;7.97;;;;;;;5.11;54.07;96214.25;4930124;29;20044;-75
2022/02/13 09:46:30;;;;;;;12.90;7.32;;;;;;;5.32;53.89;96205.19;4914311;29;20035;-75
2022/02/13 09:48:56;;;;;;;17.67;8.57;;;;;;;5.42;54.09;96200.66;4915400;29;20053;-75
2022/02/13 09:51:21;;;;;;;14.63;8.52;;;;;;;5.62;52.70;96195.91;4932213;29;20039;-75
2022/02/13 09:53:46;;;;;;;13.82;8.30;;;;;;;6.04;52.05;96211.13;4914582;29;20032;-75
2022/02/13 09:56:12;;;;;;;13.50;7.82;;;;;;;5.92;50.77;96191.81;4915777;29;20044;-77
2022/02/13 09:58:37;;;;;;;18.83;8.00;;;;;;;5.97;51.07;96198.06;4914576;29;20032;-75
2022/02/13 10:01:07;;;;;;;10.55;7.55;;;;;;;6.09;50.46;96187.34;4931853;29;20571;-75
2022/02/13 10:03:45;;;;;;;11.02;7.53;;;;;;;6.11;51.21;96180.25;4931056;29;20046;-76
2022/02/13 10:06:10;;;;;;;15.80;7.82;;;;;;;6.13;50.49;96179.09;4916090;29;20499;-76
2022/02/13 10:08:38;;;;;;;11.10;7.80;;;;;;;6.11;50.73;96177.66;4932404;29;20047;-76
2022/02/13 10:11:07;;;;;;;13.05;7.88;;;;;;;6.26;50.06;96174.19;4914202;29;20050;-75
2022/02/13 10:13:45;;;;;;;12.35;7.55;;;;;;;6.47;49.62;96165.00;4930912;29;20036;-75
2022/02/13 10:16:16;;;;;;;12.60;7.50;;;;;;;6.75;48.98;96168.66;4931507;29;20073;-75
2022/02/13 10:18:56;;;;;;;13.43;7.85;;;;;;;6.61;48.66;96149.53;4914580;29;20048;-74
2022/02/13 10:21:38;;;;;;;11.02;7.28;;;;;;;6.75;48.44;96152.34;4917699;29;20042;-77
2022/02/13 10:24:26;;;;;;;11.40;7.32;;;;;;;6.68;48.51;96151.44;4916705;29;20082;-77
2022/02/13 10:27:17;;;;;;;9.05;7.35;;;;;;;6.56;48.42;96148.47;4914887;29;20119;-77
2022/02/13 10:29:53;;;;;;;9.63;8.02;;;;;;;6.61;48.67;96172.00;4912905;29;20472;-76
2022/02/13 10:32:25;;;;;;;13.07;7.78;;;;;;;6.71;48.61;96138.16;4913621;29;20050;-75
2022/02/13 10:35:07;;;;;;;11.80;8.70;;;;;;;6.52;49.01;96131.69;4898814;29;20020;-76
2022/02/13 10:37:54;;;;;;;9.88;8.07;;;;;;;6.29;48.93;96131.69;4931470;29;20396;-76
2022/02/13 10:40:27;;;;;;;9.55;7.70;;;;;;;6.44;48.66;96129.97;4930025;29;20047;-77
2022/02/13 10:43:09;;;;;;;12.90;7.80;;;;;;;6.28;48.93;96125.72;4915697;29;20035;-78
2022/02/13 10:45:41;;;;;;;12.00;9.10;;;;;;;6.32;48.67;96121.81;4929682;29;20043;-77
2022/02/13 10:48:08;;;;;;;13.60;8.82;;;;;;;6.14;49.53;96112.75;4913970;29;20044;-75
2022/02/13 10:50:35;;;;;;;14.77;8.80;;;;;;;6.31;49.21;96098.75;4931312;29;20031;-76
2022/02/13 10:53:01;;;;;;;10.93;8.30;;;;;;;6.52;48.52;96096.31;4930953;29;20130;-76
2022/02/13 10:55:30;;;;;;;11.75;8.65;;;;;;;6.81;47.76;96105.09;4914144;29;20411;-77
2022/02/13 10:57:57;;;;;;;13.77;7.22;;;;;;;6.70;47.72;96100.38;4931436;29;20035;-76
2022/02/13 11:00:23;;;;;;;18.23;8.63;;;;;;;6.60;47.68;96101.41;4914307;29;20180;-75
2022/02/13 11:02:49;;;;;;;8.85;7.90;;;;;;;6.83;47.51;96087.63;4931178;29;20036;-76
2022/02/13 11:05:15;;;;;;;9.38;7.35;;;;;;;6.86;47.39;96087.28;4929796;29;20046;-76
2022/02/13 11:07:41;;;;;;;9.65;7.93;;;;;;;6.67;47.54;96087.78;4929895;29;20031;-75
2022/02/13 11:10:14;;;;;;;10.90;8.52;;;;;;;6.82;47.15;96071.31;4911121;29;20139;-75
2022/02/13 11:12:42;;;;;;;8.07;7.30;;;;;;;6.83;47.21;96072.94;4934128;29;20023;-76
2022/02/13 11:15:15;;;;;;;12.20;8.07;;;;;;;6.88;46.60;96074.97;4900897;29;20032;-76
2022/02/13 11:17:41;;;;;;;16.98;7.80;;;;;;;6.76;46.51;96055.72;4917142;29;20058;-77
2022/02/13 11:20:07;;;;;;;11.57;7.95;;;;;;;6.57;47.19;96052.66;4900027;29;20476;-76
2022/02/13 11:22:35;;;;;;;14.80;7.85;;;;;;;6.73;47.08;96056.06;4900921;29;20043;-76
2022/02/13 11:25:00;;;;;;;11.30;7.75;;;;;;;6.58;47.01;96048.28;4916904;29;20075;-76
2022/02/13 11:27:26;;;;;;;15.32;7.70;;;;;;;6.58;47.25;96064.59;4901552;29;20024;-76
2022/02/13 11:29:51;;;;;;;14.32;8.25;;;;;;;6.67;47.00;96033.50;4916264;29;20032;-76
2022/02/13 11:32:39;;;;;;;11.32;8.48;;;;;;;6.53;47.51;96042.88;4933637;29;20087;-75
2022/02/13 11:35:12;;;;;;;14.68;7.78;;;;;;;6.85;46.52;96023.63;4917447;29;20032;-76